Terminal Aerodrome Forecast
Issued by NWS Cleveland, OH

Home | Current Version | Previous Version | Text Only | Print | Product List | Glossary Off
Versions: 1 2 3 4 5 6 7 8 9 10 11 12 13 14 15 16 17 18 19 20 21 22 23 24 25

074
FTUS41 KCLE 130109 AAA
TAFERI
TAF AMD
KERI 130109Z 1301/1324 30015G25KT 6SM -SHSN BKN025 OVC045
      TEMPO 1301/1304 3SM -SHSN BKN015
     FM130400 31018G30KT 3SM -SHSN OVC025
      TEMPO 1304/1308 1SM -SHSN OVC015
     FM130800 33015G25KT 1 1/2SM -SHSN OVC015
     FM131200 31015G25KT 5SM -SHSN OVC025
     FM131600 32012G20KT 1 1/2SM -SHSN OVC018=

USA.gov is the U.S. government's official web portal to all federal, state and local government web resources and services.